createdAt,value
2022-10-26T00:01:12.750Z,100560.22
2022-10-26T00:03:41.493Z,100524.13
2022-10-26T00:06:20.325Z,100580.00
2022-10-26T00:08:48.422Z,100581.75
2022-10-26T00:11:16.268Z,100579.19
2022-10-26T00:13:45.426Z,100533.69
2022-10-26T00:16:22.693Z,100580.94
2022-10-26T00:18:50.575Z,100591.34
2022-10-26T00:21:18.045Z,100580.16
2022-10-26T00:23:45.413Z,100590.53
2022-10-26T00:26:12.982Z,100551.00
2022-10-26T00:28:40.584Z,100600.88
2022-10-26T00:31:12.374Z,100564.75
2022-10-26T00:33:39.609Z,100605.22
2022-10-26T00:36:09.545Z,100558.81
2022-10-26T00:38:37.098Z,100566.59
2022-10-26T00:41:04.452Z,100599.25
2022-10-26T00:43:31.637Z,100608.72
2022-10-26T00:46:00.214Z,100611.31
2022-10-26T00:48:35.751Z,100556.34
2022-10-26T00:51:08.697Z,100607.94
2022-10-26T00:53:36.567Z,100604.47
2022-10-26T00:56:04.486Z,100581.25
2022-10-26T00:58:32.723Z,100602.78
2022-10-26T01:00:59.807Z,100604.53
2022-10-26T01:03:28.388Z,100602.84
2022-10-26T01:05:58.454Z,100604.53
2022-10-26T01:08:28.622Z,100552.94
2022-10-26T01:10:58.626Z,100613.19
2022-10-26T01:13:28.619Z,100601.13
2022-10-26T01:16:14.474Z,100608.06
2022-10-26T01:18:59.375Z,100608.94
2022-10-26T01:21:39.819Z,100604.66
2022-10-26T01:24:09.635Z,100608.09
2022-10-26T01:27:04.576Z,100609.00
2022-10-26T01:29:37.538Z,100605.53
2022-10-26T01:32:24.853Z,100611.56
2022-10-26T01:35:10.605Z,100610.72
2022-10-26T01:37:44.695Z,100599.53
2022-10-26T01:40:17.851Z,100608.16
2022-10-26T01:42:52.253Z,100570.34
2022-10-26T01:45:20.066Z,100613.31
2022-10-26T01:47:48.870Z,100613.31
2022-10-26T01:50:17.655Z,100619.38
2022-10-26T01:52:44.777Z,100617.66
2022-10-26T01:55:36.468Z,100608.13
2022-10-26T01:58:26.375Z,100606.41
2022-10-26T02:01:29.002Z,100596.97
2022-10-26T02:04:09.621Z,100615.91
2022-10-26T02:06:51.936Z,100615.91
2022-10-26T02:09:43.709Z,100615.91
2022-10-26T02:12:21.535Z,100619.34
2022-10-26T02:15:05.497Z,100573.75
2022-10-26T02:17:53.819Z,100612.47
2022-10-26T02:20:36.626Z,100603.06
2022-10-26T02:23:07.454Z,100611.63
2022-10-26T02:25:41.384Z,100596.16
2022-10-26T02:28:13.570Z,100609.91
2022-10-26T02:30:44.435Z,100621.97
2022-10-26T02:33:14.018Z,100624.59
2022-10-26T02:35:43.649Z,100627.16
2022-10-26T02:38:13.184Z,100627.16
2022-10-26T02:40:42.183Z,100628.91
2022-10-26T02:43:15.175Z,100628.03
2022-10-26T02:45:51.589Z,100611.75
2022-10-26T02:48:19.538Z,100605.72
2022-10-26T02:51:01.577Z,100635.84
2022-10-26T02:53:34.025Z,100628.97
2022-10-26T02:56:09.334Z,100641.00
2022-10-26T02:58:42.158Z,100635.00
2022-10-26T03:01:09.428Z,100616.03
2022-10-26T03:03:36.762Z,100635.84
2022-10-26T03:06:04.137Z,100617.78
2022-10-26T03:08:31.484Z,100635.84
2022-10-26T03:10:58.894Z,100641.00
2022-10-26T03:13:26.306Z,100642.69
2022-10-26T03:15:57.844Z,100643.56
2022-10-26T03:18:25.135Z,100642.69
2022-10-26T03:20:52.379Z,100649.59
2022-10-26T03:23:19.535Z,100615.16
2022-10-26T03:25:46.726Z,100644.44
2022-10-26T03:28:14.454Z,100639.25
2022-10-26T03:30:41.644Z,100628.94
2022-10-26T03:33:08.816Z,100603.06
2022-10-26T03:35:35.926Z,100646.09
2022-10-26T03:38:03.090Z,100616.88
2022-10-26T03:40:30.238Z,100640.91
2022-10-26T03:42:57.505Z,100646.09
2022-10-26T03:45:24.614Z,100602.25
2022-10-26T03:47:51.695Z,100649.56
2022-10-26T03:50:21.013Z,100651.28
2022-10-26T03:52:49.790Z,100647.88
2022-10-26T03:55:17.686Z,100657.31
2022-10-26T03:57:46.068Z,100659.06
2022-10-26T04:00:15.774Z,100589.41
2022-10-26T04:02:50.405Z,100658.22
2022-10-26T04:05:17.724Z,100661.69
2022-10-26T04:07:44.969Z,100661.69
2022-10-26T04:10:12.184Z,100646.19
2022-10-26T04:12:39.467Z,100626.44
2022-10-26T04:15:07.635Z,100662.53
2022-10-26T04:17:35.064Z,100671.16
2022-10-26T04:20:02.336Z,100675.50
2022-10-26T04:22:29.668Z,100671.19
2022-10-26T04:24:57.016Z,100670.31
2022-10-26T04:27:24.355Z,100670.34
2022-10-26T04:29:51.578Z,100630.78
2022-10-26T04:32:18.866Z,100674.66
2022-10-26T04:34:45.975Z,100671.22
2022-10-26T04:37:13.345Z,100681.56
2022-10-26T04:39:40.493Z,100678.13
2022-10-26T04:42:07.655Z,100672.09
2022-10-26T04:44:34.825Z,100649.75
2022-10-26T04:47:02.143Z,100576.59
2022-10-26T04:49:29.465Z,100622.19
2022-10-26T04:51:56.571Z,100639.44
2022-10-26T04:54:23.808Z,100679.03
2022-10-26T04:56:52.300Z,100675.59
2022-10-26T04:59:19.736Z,100670.41
2022-10-26T05:01:47.033Z,100676.47
2022-10-26T05:04:14.579Z,100687.66
2022-10-26T05:06:41.858Z,100640.31
2022-10-26T05:09:09.147Z,100681.66
2022-10-26T05:11:36.559Z,100675.59
2022-10-26T05:14:03.860Z,100682.50
2022-10-26T05:16:30.979Z,100616.22
2022-10-26T05:18:58.303Z,100680.78
2022-10-26T05:21:25.610Z,100685.13
2022-10-26T05:23:55.637Z,100672.19
2022-10-26T05:26:24.310Z,100696.31
2022-10-26T05:28:52.495Z,100706.66
2022-10-26T05:31:20.593Z,100704.06
2022-10-26T05:33:51.618Z,100692.88
2022-10-26T05:36:19.555Z,100698.03
2022-10-26T05:38:47.466Z,100701.50
2022-10-26T05:41:14.667Z,100701.50
2022-10-26T05:43:42.014Z,100699.75
2022-10-26T05:46:09.309Z,100654.97
2022-10-26T05:48:36.714Z,100712.72
2022-10-26T05:51:04.343Z,100713.56
2022-10-26T05:53:31.618Z,100720.44
2022-10-26T05:55:59.314Z,100718.75
2022-10-26T05:58:27.088Z,100717.00
2022-10-26T06:01:14.136Z,100723.06
2022-10-26T06:04:12.120Z,100729.94
2022-10-26T06:06:47.582Z,100732.56
2022-10-26T06:09:15.608Z,100723.06
2022-10-26T06:11:43.199Z,100722.19
2022-10-26T06:14:10.888Z,100692.88
2022-10-26T06:16:48.451Z,100723.91
2022-10-26T06:19:47.558Z,100729.09
2022-10-26T06:22:43.215Z,100688.56
2022-10-26T06:25:28.745Z,100729.94
2022-10-26T06:28:28.645Z,100729.03
2022-10-26T06:30:57.732Z,100703.22
2022-10-26T06:33:29.387Z,100713.59
2022-10-26T06:36:04.803Z,100744.59
2022-10-26T06:38:34.898Z,100742.88
2022-10-26T06:41:02.505Z,100686.00
2022-10-26T06:43:35.708Z,100693.75
2022-10-26T06:46:26.502Z,100748.88
2022-10-26T06:49:17.219Z,100754.06
2022-10-26T06:51:57.924Z,100717.00
2022-10-26T06:54:47.384Z,100758.41
2022-10-26T06:57:16.425Z,100757.53
2022-10-26T06:59:45.583Z,100765.28
2022-10-26T07:02:14.925Z,100760.09
2022-10-26T07:04:43.884Z,100768.75
2022-10-26T07:07:22.709Z,100773.91
2022-10-26T07:09:50.655Z,100766.13
2022-10-26T07:12:17.985Z,100741.16
2022-10-26T07:14:45.372Z,100731.66
2022-10-26T07:17:12.704Z,100760.97
2022-10-26T07:19:45.160Z,100780.78
2022-10-26T07:22:12.950Z,100778.19
2022-10-26T07:24:40.306Z,100787.66
2022-10-26T07:27:07.475Z,100780.78
2022-10-26T07:29:35.614Z,100773.88
2022-10-26T07:32:03.135Z,100754.94
2022-10-26T07:34:30.381Z,100774.72
2022-10-26T07:36:59.939Z,100692.03
2022-10-26T07:39:27.573Z,100770.41
2022-10-26T07:41:54.819Z,100756.63
2022-10-26T07:44:22.089Z,100741.13
2022-10-26T07:46:49.443Z,100762.63
2022-10-26T07:49:19.325Z,100775.56
2022-10-26T07:51:46.894Z,100787.63
2022-10-26T07:54:14.019Z,100775.56
2022-10-26T07:56:41.347Z,100790.22
2022-10-26T07:59:08.477Z,100796.25
2022-10-26T08:01:36.099Z,100796.22
2022-10-26T08:04:03.497Z,100800.53
2022-10-26T08:06:30.574Z,100783.31
2022-10-26T08:08:57.625Z,100789.31
2022-10-26T08:11:24.968Z,100804.81
2022-10-26T08:13:53.980Z,100813.44
2022-10-26T08:16:22.067Z,100708.38
2022-10-26T08:18:50.097Z,100816.88
2022-10-26T08:21:25.989Z,100816.88
2022-10-26T08:24:03.009Z,100786.75
2022-10-26T08:26:30.894Z,100812.59
2022-10-26T08:28:58.255Z,100758.34
2022-10-26T08:31:25.580Z,100772.13
2022-10-26T08:33:52.950Z,100806.59
2022-10-26T08:36:27.894Z,100819.50
2022-10-26T08:38:55.102Z,100827.25
2022-10-26T08:41:40.455Z,100837.63
2022-10-26T08:44:40.454Z,100814.34
2022-10-26T08:49:52.415Z,100811.75
2022-10-26T08:52:25.835Z,100785.00
2022-10-26T08:54:57.134Z,100832.41
2022-10-26T08:57:43.073Z,100819.50
2022-10-26T09:00:18.477Z,100832.41
2022-10-26T09:02:45.775Z,100835.84
2022-10-26T09:05:17.777Z,100835.81
2022-10-26T09:07:51.092Z,100835.81
2022-10-26T09:13:02.101Z,100837.56
2022-10-26T09:15:50.373Z,100837.53
2022-10-26T09:18:17.620Z,100832.38
2022-10-26T09:21:22.197Z,100839.28
2022-10-26T09:24:07.735Z,100837.53
2022-10-26T09:29:40.910Z,100797.09
2022-10-26T09:32:17.445Z,100847.91
2022-10-26T09:34:51.659Z,100847.88
2022-10-26T09:37:26.828Z,100842.69
2022-10-26T09:39:53.957Z,100849.56
2022-10-26T09:42:29.594Z,100817.66
2022-10-26T09:45:07.508Z,100851.25
2022-10-26T09:47:43.384Z,100846.91
2022-10-26T09:50:13.392Z,100852.94
2022-10-26T09:52:40.818Z,100768.53
2022-10-26T09:55:11.745Z,100858.09
2022-10-26T09:57:42.788Z,100863.25
2022-10-26T10:00:18.090Z,100859.78
2022-10-26T10:02:49.324Z,100849.47
2022-10-26T10:08:24.845Z,100870.09
2022-10-26T10:10:59.821Z,100874.38
2022-10-26T10:13:30.406Z,100868.31
2022-10-26T10:16:06.216Z,100868.25
2022-10-26T10:18:34.137Z,100867.34
2022-10-26T10:21:02.064Z,100828.59
2022-10-26T10:23:52.540Z,100851.78
2022-10-26T10:26:19.983Z,100872.44
2022-10-26T10:28:59.353Z,100843.09
2022-10-26T10:31:32.500Z,100858.59
2022-10-26T10:34:00.276Z,100870.63
2022-10-26T10:36:30.633Z,100848.19
2022-10-26T10:38:57.915Z,100869.72
2022-10-26T10:41:36.859Z,100875.75
2022-10-26T10:44:30.035Z,100868.88
2022-10-26T10:47:06.503Z,100874.94
2022-10-26T10:49:34.616Z,100869.66
2022-10-26T10:52:01.939Z,100871.38
2022-10-26T10:54:40.304Z,100866.25
2022-10-26T10:57:40.301Z,100878.38
2022-10-26T11:00:10.586Z,100855.06
2022-10-26T11:02:56.594Z,100872.34
2022-10-26T11:05:50.890Z,100872.28
2022-10-26T11:08:28.075Z,100869.69
2022-10-26T11:11:03.494Z,100871.31
2022-10-26T11:13:35.254Z,100872.16
2022-10-26T11:16:08.015Z,100870.34
2022-10-26T11:18:44.775Z,100877.25
2022-10-26T11:21:23.296Z,100831.59
2022-10-26T11:23:57.763Z,100826.41
2022-10-26T11:26:46.000Z,100873.69
2022-10-26T11:29:35.021Z,100881.41
2022-10-26T11:32:46.257Z,100857.22
2022-10-26T11:35:33.654Z,100876.16
2022-10-26T11:38:20.862Z,100878.75
2022-10-26T11:41:34.297Z,100877.88
2022-10-26T11:44:30.476Z,100860.56
2022-10-26T11:47:03.247Z,100876.03
2022-10-26T11:49:55.175Z,100836.44
2022-10-26T11:52:48.001Z,100873.44
2022-10-26T11:55:15.783Z,100871.69
2022-10-26T11:57:43.494Z,100870.72
2022-10-26T12:00:13.664Z,100868.94
2022-10-26T12:05:22.413Z,100868.69
2022-10-26T12:08:03.938Z,100825.59
2022-10-26T12:10:34.933Z,100866.84
2022-10-26T12:13:29.015Z,100866.78
2022-10-26T12:16:07.334Z,100866.72
2022-10-26T12:18:56.415Z,100864.06
2022-10-26T12:21:30.377Z,100871.72
2022-10-26T12:24:26.613Z,100856.16
2022-10-26T12:26:59.226Z,100872.44
2022-10-26T12:29:37.320Z,100868.09
2022-10-26T12:32:25.335Z,100863.78
2022-10-26T12:34:55.297Z,100875.75
2022-10-26T12:37:32.143Z,100873.13
2022-10-26T12:40:33.376Z,100867.91
2022-10-26T12:43:16.146Z,100868.72
2022-10-26T12:45:45.775Z,100858.25
2022-10-26T12:48:38.827Z,100857.34
2022-10-26T12:51:40.064Z,100847.06
2022-10-26T12:54:25.698Z,100856.50
2022-10-26T12:57:01.935Z,100855.66
2022-10-26T12:59:56.695Z,100860.88
2022-10-26T13:02:26.746Z,100867.88
2022-10-26T13:05:08.586Z,100866.22
2022-10-26T13:07:39.407Z,100868.88
2022-10-26T13:10:27.377Z,100874.97
2022-10-26T13:12:58.203Z,100873.25
2022-10-26T13:15:31.401Z,100875.00
2022-10-26T13:18:09.221Z,100878.50
2022-10-26T13:20:52.548Z,100869.84
2022-10-26T13:23:27.139Z,100875.09
2022-10-26T13:26:13.220Z,100876.00
2022-10-26T13:28:40.622Z,100867.38
2022-10-26T13:31:33.908Z,100857.84
2022-10-26T13:34:21.822Z,100856.91
2022-10-26T13:37:03.816Z,100861.06
2022-10-26T13:39:36.135Z,100864.53
2022-10-26T13:42:05.860Z,100836.97
2022-10-26T13:44:45.017Z,100864.53
2022-10-26T13:47:22.444Z,100866.19
2022-10-26T13:49:53.587Z,100854.19
2022-10-26T13:52:33.506Z,100869.69
2022-10-26T13:55:08.266Z,100871.44
2022-10-26T13:57:40.859Z,100869.78
2022-10-26T14:00:22.460Z,100878.53
2022-10-26T14:02:50.190Z,100863.09
2022-10-26T14:05:19.213Z,100877.78
2022-10-26T14:07:54.098Z,100870.09
2022-10-26T14:10:26.738Z,100868.41
2022-10-26T14:12:54.855Z,100869.38
2022-10-26T14:15:26.214Z,100869.44
2022-10-26T14:17:55.702Z,100873.75
2022-10-26T14:20:26.134Z,100869.38
2022-10-26T14:22:53.535Z,100866.75
2022-10-26T14:25:41.836Z,100867.66
2022-10-26T14:28:28.405Z,100865.88
2022-10-26T14:31:13.987Z,100866.72
2022-10-26T14:33:43.765Z,100869.31
2022-10-26T14:36:12.025Z,100859.88
2022-10-26T14:38:45.545Z,100866.78
2022-10-26T14:41:16.355Z,100865.03
2022-10-26T14:43:45.300Z,100857.44
2022-10-26T14:46:16.957Z,100847.94
2022-10-26T14:49:04.734Z,100863.41
2022-10-26T14:51:36.176Z,100875.50
2022-10-26T14:54:05.039Z,100871.19
2022-10-26T14:56:35.376Z,100869.50
2022-10-26T14:59:31.989Z,100865.25
2022-10-26T15:02:19.900Z,100856.72
2022-10-26T15:05:05.226Z,100867.06
2022-10-26T15:07:37.735Z,100824.94
2022-10-26T15:10:06.187Z,100877.56
2022-10-26T15:12:38.777Z,100867.22
2022-10-26T15:17:55.107Z,100860.53
2022-10-26T15:20:24.725Z,100865.78
2022-10-26T15:22:54.807Z,100876.16
2022-10-26T15:25:28.727Z,100883.13
2022-10-26T15:28:09.866Z,100886.66
2022-10-26T15:30:37.214Z,100885.00
2022-10-26T15:33:20.554Z,100888.53
2022-10-26T15:35:48.044Z,100845.50
2022-10-26T15:38:15.336Z,100842.94
2022-10-26T15:40:44.056Z,100868.81
2022-10-26T15:43:11.824Z,100881.75
2022-10-26T15:45:48.585Z,100887.00
2022-10-26T15:48:30.134Z,100874.97
2022-10-26T15:50:57.663Z,100849.19
2022-10-26T15:53:30.808Z,100897.50
2022-10-26T15:56:00.244Z,100876.88
2022-10-26T15:58:30.025Z,100875.19
2022-10-26T16:00:57.315Z,100897.59
2022-10-26T16:03:26.605Z,100904.50
2022-10-26T16:05:59.784Z,100909.75
2022-10-26T16:08:29.934Z,100907.19
2022-10-26T16:10:57.859Z,100910.69
2022-10-26T16:13:25.065Z,100865.00
2022-10-26T16:15:52.353Z,100815.06
2022-10-26T16:18:19.646Z,100859.91
2022-10-26T16:20:46.987Z,100915.94
2022-10-26T16:23:14.557Z,100912.53
2022-10-26T16:25:44.675Z,100920.25
2022-10-26T16:28:14.574Z,100922.88
2022-10-26T16:30:42.206Z,100923.78
2022-10-26T16:33:09.555Z,100930.69
2022-10-26T16:35:36.774Z,100935.00
2022-10-26T16:38:04.138Z,100936.75
2022-10-26T16:40:31.365Z,100937.63
2022-10-26T16:42:58.498Z,100920.41
2022-10-26T16:45:25.823Z,100941.09
2022-10-26T16:47:53.598Z,100937.63
2022-10-26T16:50:22.315Z,100904.88
2022-10-26T16:52:49.519Z,100946.28
2022-10-26T16:55:17.250Z,100950.59
2022-10-26T16:57:44.474Z,100954.06
2022-10-26T17:00:11.906Z,100954.94
2022-10-26T17:02:40.451Z,100956.66
2022-10-26T17:05:09.704Z,100960.09
2022-10-26T17:07:36.896Z,100967.03
2022-10-26T17:10:04.816Z,100970.47
2022-10-26T17:12:32.308Z,100973.06
2022-10-26T17:15:00.767Z,100963.56
2022-10-26T17:17:27.948Z,100972.22
2022-10-26T17:19:55.359Z,100981.69
2022-10-26T17:22:22.677Z,100975.69
2022-10-26T17:24:50.028Z,100976.53
2022-10-26T17:27:17.657Z,100977.38
2022-10-26T17:29:44.783Z,100962.72
2022-10-26T17:32:12.092Z,100980.84
2022-10-26T17:34:39.467Z,100980.84
2022-10-26T17:37:06.817Z,100958.41
2022-10-26T17:39:33.928Z,100975.66
2022-10-26T17:42:01.035Z,100989.47
2022-10-26T17:44:28.259Z,100973.97
2022-10-26T17:46:55.711Z,100989.50
2022-10-26T17:49:25.085Z,100987.78
2022-10-26T17:51:54.259Z,100999.84
2022-10-26T17:54:21.714Z,100997.25
2022-10-26T17:56:48.947Z,100956.72
2022-10-26T17:59:16.074Z,100996.41
2022-10-26T18:01:43.873Z,100997.25
2022-10-26T18:04:11.204Z,100991.22
2022-10-26T18:06:38.538Z,101010.19
2022-10-26T18:09:05.817Z,100977.41
2022-10-26T18:11:33.109Z,100980.88
2022-10-26T18:14:00.338Z,101005.03
2022-10-26T18:16:28.376Z,101010.22
2022-10-26T18:19:01.520Z,101009.34
2022-10-26T18:21:30.648Z,100973.97
2022-10-26T18:23:58.045Z,100985.19
2022-10-26T18:26:29.134Z,101000.72
2022-10-26T18:28:57.747Z,100958.44
2022-10-26T18:31:26.587Z,101003.31
2022-10-26T18:33:58.548Z,101007.59
2022-10-26T18:36:27.558Z,101013.69
2022-10-26T18:38:55.607Z,101013.69
2022-10-26T18:41:24.253Z,101013.69
2022-10-26T18:43:54.437Z,101014.50
2022-10-26T18:46:24.544Z,101017.13
2022-10-26T18:48:52.666Z,101011.94
2022-10-26T18:51:22.893Z,100958.44
2022-10-26T18:53:50.228Z,101022.31
2022-10-26T18:56:20.148Z,101020.56
2022-10-26T18:58:50.137Z,101029.19
2022-10-26T19:01:28.506Z,101030.94
2022-10-26T19:04:00.933Z,101030.97
2022-10-26T19:06:30.860Z,101028.34
2022-10-26T19:08:58.869Z,101030.94
2022-10-26T19:11:27.953Z,101022.31
2022-10-26T19:13:55.635Z,101037.88
2022-10-26T19:16:45.284Z,101018.00
2022-10-26T19:19:12.714Z,101035.25
2022-10-26T19:21:39.914Z,101037.84
2022-10-26T19:24:13.103Z,101057.72
2022-10-26T19:26:43.520Z,101046.47
2022-10-26T19:29:16.618Z,101049.97
2022-10-26T19:31:45.951Z,101056.84
2022-10-26T19:34:14.701Z,101058.56
2022-10-26T19:36:45.467Z,101068.94
2022-10-26T19:39:17.350Z,101070.66
2022-10-26T19:41:45.925Z,101080.16
2022-10-26T19:44:15.214Z,101034.38
2022-10-26T19:46:43.908Z,101077.56
2022-10-26T19:49:13.046Z,101081.88
2022-10-26T19:51:40.593Z,101038.69
2022-10-26T19:54:07.986Z,101075.81
2022-10-26T19:56:36.972Z,101086.22
2022-10-26T19:59:05.350Z,101081.03
2022-10-26T20:01:32.995Z,101091.38
2022-10-26T20:04:02.997Z,101093.09
2022-10-26T20:06:31.258Z,101078.44
2022-10-26T20:08:59.317Z,101086.22
2022-10-26T20:11:26.654Z,101074.09
2022-10-26T20:13:56.244Z,101075.81
2022-10-26T20:16:24.133Z,101086.22
2022-10-26T20:18:51.608Z,101080.16
2022-10-26T20:21:18.820Z,101081.88
2022-10-26T20:23:46.293Z,101048.19
2022-10-26T20:26:19.654Z,101087.06
2022-10-26T20:28:51.282Z,101087.94
2022-10-26T20:31:18.973Z,101047.34
2022-10-26T20:33:50.024Z,101086.19
2022-10-26T20:36:17.097Z,101078.41
2022-10-26T20:38:44.734Z,101081.00
2022-10-26T20:41:15.016Z,101087.06
2022-10-26T20:43:43.017Z,101093.09
2022-10-26T20:46:23.493Z,101076.69
2022-10-26T20:48:52.224Z,101075.81
2022-10-26T20:51:34.329Z,101083.59
2022-10-26T20:54:17.229Z,101089.66
2022-10-26T20:56:45.758Z,101082.72
2022-10-26T20:59:40.457Z,101088.78
2022-10-26T21:02:10.568Z,101086.16
2022-10-26T21:04:37.928Z,101095.66
2022-10-26T21:07:05.148Z,101077.53
2022-10-26T21:09:35.696Z,101077.50
2022-10-26T21:12:04.584Z,101095.66
2022-10-26T21:14:36.058Z,101097.38
2022-10-26T21:17:03.249Z,101096.50
2022-10-26T21:19:30.476Z,101076.66
2022-10-26T21:21:57.662Z,101094.78
2022-10-26T21:24:24.963Z,101071.44
2022-10-26T21:26:52.841Z,101073.19
2022-10-26T21:29:20.169Z,101085.25
2022-10-26T21:31:47.536Z,101091.31
2022-10-26T21:34:14.929Z,101105.13
2022-10-26T21:36:42.085Z,101105.97
2022-10-26T21:39:09.306Z,101106.84
2022-10-26T21:41:38.104Z,101101.66
2022-10-26T21:44:09.627Z,101103.38
2022-10-26T21:46:43.328Z,101099.94
2022-10-26T21:49:10.778Z,101099.06
2022-10-26T21:51:38.239Z,101093.00
2022-10-26T21:54:05.498Z,101097.34
2022-10-26T21:56:32.631Z,101099.03
2022-10-26T21:59:01.016Z,101068.78
2022-10-26T22:01:28.288Z,101077.44
2022-10-26T22:03:56.368Z,101105.91
2022-10-26T22:06:23.639Z,101108.50
2022-10-26T22:08:50.871Z,101078.28
2022-10-26T22:11:21.417Z,101095.56
2022-10-26T22:13:50.098Z,101059.28
2022-10-26T22:16:22.361Z,101096.44
2022-10-26T22:18:50.684Z,101096.41
2022-10-26T22:21:19.360Z,101094.66
2022-10-26T22:23:47.529Z,101091.22
2022-10-26T22:26:20.512Z,101019.44
2022-10-26T22:28:50.333Z,101103.28
2022-10-26T22:31:27.580Z,101084.31
2022-10-26T22:34:03.294Z,101009.97
2022-10-26T22:36:33.819Z,101086.03
2022-10-26T22:39:01.031Z,101099.84
2022-10-26T22:41:28.111Z,101084.31
2022-10-26T22:43:55.339Z,101042.81
2022-10-26T22:46:27.683Z,101055.78
2022-10-26T22:48:57.421Z,101065.31
2022-10-26T22:51:26.560Z,101088.66
2022-10-26T22:53:55.288Z,101058.41
2022-10-26T22:56:24.077Z,101097.28
2022-10-26T22:58:52.330Z,101093.81
2022-10-26T23:01:25.484Z,101086.91
2022-10-26T23:03:54.142Z,101065.31
2022-10-26T23:06:21.873Z,101092.13
2022-10-26T23:08:49.481Z,101091.22
2022-10-26T23:11:19.011Z,101098.97
2022-10-26T23:13:46.210Z,101098.09
2022-10-26T23:16:20.803Z,101091.16
2022-10-26T23:18:49.160Z,101110.16
2022-10-26T23:21:17.436Z,101108.44
2022-10-26T23:23:45.108Z,101110.13
2022-10-26T23:26:14.805Z,101101.50
2022-10-26T23:28:43.338Z,101120.47
2022-10-26T23:31:23.018Z,101115.25
2022-10-26T23:33:51.677Z,101101.38
2022-10-26T23:36:19.583Z,101111.81
2022-10-26T23:38:46.965Z,101095.31
2022-10-26T23:41:14.879Z,101119.59
2022-10-26T23:43:42.238Z,101134.22
2022-10-26T23:46:09.453Z,101092.69
2022-10-26T23:48:37.557Z,101116.97
2022-10-26T23:51:05.206Z,101116.91
2022-10-26T23:53:32.569Z,101120.34
2022-10-26T23:55:59.901Z,101125.47
2022-10-26T23:58:27.082Z,101127.19
